sensor_id;sensor_type;location;lat;lon;timestamp;P1;durP1;ratioP1;P2;durP2;ratioP2
58214;SDS011;44011;52.218;1.480;2024-02-04T00:01:40;6.32;;;3.55;;
58214;SDS011;44011;52.218;1.480;2024-02-04T00:04:06;4.80;;;4.32;;
58214;SDS011;44011;52.218;1.480;2024-02-04T00:06:31;5.57;;;3.72;;
58214;SDS011;44011;52.218;1.480;2024-02-04T00:08:56;4.43;;;4.03;;
58214;SDS011;44011;52.218;1.480;2024-02-04T00:11:22;5.82;;;4.07;;
58214;SDS011;44011;52.218;1.480;2024-02-04T00:13:47;6.18;;;4.15;;
58214;SDS011;44011;52.218;1.480;2024-02-04T00:16:12;4.45;;;4.05;;
58214;SDS011;44011;52.218;1.480;2024-02-04T00:18:37;4.15;;;3.75;;
58214;SDS011;44011;52.218;1.480;2024-02-04T00:21:03;6.53;;;4.45;;
58214;SDS011;44011;52.218;1.480;2024-02-04T00:23:28;5.93;;;4.55;;
58214;SDS011;44011;52.218;1.480;2024-02-04T00:25:54;4.50;;;3.92;;
58214;SDS011;44011;52.218;1.480;2024-02-04T00:28:19;5.80;;;4.57;;
58214;SDS011;44011;52.218;1.480;2024-02-04T00:30:45;4.47;;;4.07;;
58214;SDS011;44011;52.218;1.480;2024-02-04T00:33:10;5.75;;;4.22;;
58214;SDS011;44011;52.218;1.480;2024-02-04T00:35:36;5.10;;;3.95;;
58214;SDS011;44011;52.218;1.480;2024-02-04T00:38:01;5.07;;;4.35;;
58214;SDS011;44011;52.218;1.480;2024-02-04T00:40:28;6.53;;;4.93;;
58214;SDS011;44011;52.218;1.480;2024-02-04T00:42:53;7.43;;;4.83;;
58214;SDS011;44011;52.218;1.480;2024-02-04T00:45:18;5.33;;;4.60;;
58214;SDS011;44011;52.218;1.480;2024-02-04T00:47:43;6.18;;;4.93;;
58214;SDS011;44011;52.218;1.480;2024-02-04T00:50:09;5.82;;;4.97;;
58214;SDS011;44011;52.218;1.480;2024-02-04T00:52:34;8.57;;;5.90;;
58214;SDS011;44011;52.218;1.480;2024-02-04T00:54:59;10.65;;;7.25;;
58214;SDS011;44011;52.218;1.480;2024-02-04T00:57:25;13.45;;;8.32;;
58214;SDS011;44011;52.218;1.480;2024-02-04T00:59:50;11.88;;;8.45;;
58214;SDS011;44011;52.218;1.480;2024-02-04T01:02:15;11.98;;;8.95;;
58214;SDS011;44011;52.218;1.480;2024-02-04T01:04:41;14.20;;;9.63;;
58214;SDS011;44011;52.218;1.480;2024-02-04T01:07:06;16.23;;;8.85;;
58214;SDS011;44011;52.218;1.480;2024-02-04T01:09:31;14.52;;;10.27;;
58214;SDS011;44011;52.218;1.480;2024-02-04T01:11:57;14.25;;;10.30;;
58214;SDS011;44011;52.218;1.480;2024-02-04T01:14:22;15.75;;;10.55;;
58214;SDS011;44011;52.218;1.480;2024-02-04T01:16:47;15.27;;;10.18;;
58214;SDS011;44011;52.218;1.480;2024-02-04T01:19:12;17.25;;;10.80;;
58214;SDS011;44011;52.218;1.480;2024-02-04T01:21:37;14.30;;;10.15;;
58214;SDS011;44011;52.218;1.480;2024-02-04T01:24:03;15.10;;;9.82;;
58214;SDS011;44011;52.218;1.480;2024-02-04T01:26:28;13.57;;;9.57;;
58214;SDS011;44011;52.218;1.480;2024-02-04T01:28:53;17.23;;;10.45;;
58214;SDS011;44011;52.218;1.480;2024-02-04T01:31:18;16.80;;;9.88;;
58214;SDS011;44011;52.218;1.480;2024-02-04T01:33:44;13.50;;;9.30;;
58214;SDS011;44011;52.218;1.480;2024-02-04T01:36:09;14.15;;;9.13;;
58214;SDS011;44011;52.218;1.480;2024-02-04T01:38:34;17.50;;;9.85;;
58214;SDS011;44011;52.218;1.480;2024-02-04T01:40:59;12.95;;;8.15;;
58214;SDS011;44011;52.218;1.480;2024-02-04T01:43:25;12.88;;;8.88;;
58214;SDS011;44011;52.218;1.480;2024-02-04T01:45:51;13.27;;;7.68;;
58214;SDS011;44011;52.218;1.480;2024-02-04T01:48:17;12.90;;;8.13;;
58214;SDS011;44011;52.218;1.480;2024-02-04T01:50:43;12.20;;;7.90;;
58214;SDS011;44011;52.218;1.480;2024-02-04T01:53:08;12.38;;;7.85;;
58214;SDS011;44011;52.218;1.480;2024-02-04T01:55:34;10.55;;;7.57;;
58214;SDS011;44011;52.218;1.480;2024-02-04T01:57:59;10.93;;;7.40;;
58214;SDS011;44011;52.218;1.480;2024-02-04T02:00:24;10.45;;;7.10;;
58214;SDS011;44011;52.218;1.480;2024-02-04T02:02:50;9.90;;;6.97;;
58214;SDS011;44011;52.218;1.480;2024-02-04T02:05:16;13.02;;;7.53;;
58214;SDS011;44011;52.218;1.480;2024-02-04T02:07:41;11.07;;;7.50;;
58214;SDS011;44011;52.218;1.480;2024-02-04T02:10:08;10.25;;;6.85;;
58214;SDS011;44011;52.218;1.480;2024-02-04T02:12:39;10.70;;;7.07;;
58214;SDS011;44011;52.218;1.480;2024-02-04T02:15:15;12.40;;;7.68;;
58214;SDS011;44011;52.218;1.480;2024-02-04T02:25:32;11.98;;;7.63;;
58214;SDS011;44011;52.218;1.480;2024-02-04T02:27:58;12.75;;;6.95;;
58214;SDS011;44011;52.218;1.480;2024-02-04T02:30:24;9.73;;;6.82;;
58214;SDS011;44011;52.218;1.480;2024-02-04T02:32:49;10.93;;;7.00;;
58214;SDS011;44011;52.218;1.480;2024-02-04T02:35:18;13.65;;;8.63;;
58214;SDS011;44011;52.218;1.480;2024-02-04T02:37:47;11.15;;;7.22;;
58214;SDS011;44011;52.218;1.480;2024-02-04T02:42:38;9.60;;;5.80;;
58214;SDS011;44011;52.218;1.480;2024-02-04T02:45:07;8.63;;;5.95;;
58214;SDS011;44011;52.218;1.480;2024-02-04T02:47:32;9.73;;;5.30;;
58214;SDS011;44011;52.218;1.480;2024-02-04T02:49:59;6.82;;;4.55;;
58214;SDS011;44011;52.218;1.480;2024-02-04T02:52:25;6.93;;;4.82;;
58214;SDS011;44011;52.218;1.480;2024-02-04T02:54:50;5.07;;;4.30;;
58214;SDS011;44011;52.218;1.480;2024-02-04T02:57:15;6.40;;;4.32;;
58214;SDS011;44011;52.218;1.480;2024-02-04T02:59:40;5.65;;;3.58;;
58214;SDS011;44011;52.218;1.480;2024-02-04T03:02:06;6.30;;;3.53;;
58214;SDS011;44011;52.218;1.480;2024-02-04T03:04:31;4.18;;;3.55;;
58214;SDS011;44011;52.218;1.480;2024-02-04T03:06:56;4.93;;;3.25;;
58214;SDS011;44011;52.218;1.480;2024-02-04T03:09:21;4.90;;;3.35;;
58214;SDS011;44011;52.218;1.480;2024-02-04T03:11:46;6.32;;;3.55;;
58214;SDS011;44011;52.218;1.480;2024-02-04T03:14:13;5.43;;;4.03;;
58214;SDS011;44011;52.218;1.480;2024-02-04T03:16:39;6.57;;;3.90;;
58214;SDS011;44011;52.218;1.480;2024-02-04T03:19:05;6.23;;;3.90;;
58214;SDS011;44011;52.218;1.480;2024-02-04T03:21:30;5.80;;;3.42;;
58214;SDS011;44011;52.218;1.480;2024-02-04T03:23:55;6.00;;;4.38;;
58214;SDS011;44011;52.218;1.480;2024-02-04T03:26:20;5.20;;;3.80;;
58214;SDS011;44011;52.218;1.480;2024-02-04T03:28:46;5.75;;;4.28;;
58214;SDS011;44011;52.218;1.480;2024-02-04T03:31:11;5.00;;;3.53;;
58214;SDS011;44011;52.218;1.480;2024-02-04T03:33:36;5.93;;;4.43;;
58214;SDS011;44011;52.218;1.480;2024-02-04T03:36:01;5.90;;;4.13;;
58214;SDS011;44011;52.218;1.480;2024-02-04T03:38:27;9.38;;;4.95;;
58214;SDS011;44011;52.218;1.480;2024-02-04T03:40:52;5.30;;;4.30;;
58214;SDS011;44011;52.218;1.480;2024-02-04T03:43:17;8.40;;;4.72;;
58214;SDS011;44011;52.218;1.480;2024-02-04T03:45:42;6.60;;;4.75;;
58214;SDS011;44011;52.218;1.480;2024-02-04T03:48:07;5.70;;;4.22;;
58214;SDS011;44011;52.218;1.480;2024-02-04T03:50:33;7.45;;;4.38;;
58214;SDS011;44011;52.218;1.480;2024-02-04T03:52:58;6.50;;;4.70;;
58214;SDS011;44011;52.218;1.480;2024-02-04T03:55:23;6.37;;;4.73;;
58214;SDS011;44011;52.218;1.480;2024-02-04T03:57:48;6.97;;;4.43;;
58214;SDS011;44011;52.218;1.480;2024-02-04T04:00:14;11.48;;;4.65;;
58214;SDS011;44011;52.218;1.480;2024-02-04T04:02:39;8.90;;;4.93;;
58214;SDS011;44011;52.218;1.480;2024-02-04T04:05:05;5.82;;;4.10;;
58214;SDS011;44011;52.218;1.480;2024-02-04T04:07:30;9.02;;;4.00;;
58214;SDS011;44011;52.218;1.480;2024-02-04T04:09:55;6.35;;;3.92;;
58214;SDS011;44011;52.218;1.480;2024-02-04T04:12:20;5.70;;;4.20;;
58214;SDS011;44011;52.218;1.480;2024-02-04T04:14:46;5.63;;;4.30;;
58214;SDS011;44011;52.218;1.480;2024-02-04T04:17:11;6.93;;;5.07;;
58214;SDS011;44011;52.218;1.480;2024-02-04T04:19:36;5.90;;;4.30;;
58214;SDS011;44011;52.218;1.480;2024-02-04T04:22:02;5.78;;;4.10;;
58214;SDS011;44011;52.218;1.480;2024-02-04T04:24:27;6.03;;;4.15;;
58214;SDS011;44011;52.218;1.480;2024-02-04T04:26:52;8.30;;;4.65;;
58214;SDS011;44011;52.218;1.480;2024-02-04T04:29:18;6.43;;;4.25;;
58214;SDS011;44011;52.218;1.480;2024-02-04T04:31:43;6.43;;;3.95;;
58214;SDS011;44011;52.218;1.480;2024-02-04T04:34:08;5.85;;;3.88;;
58214;SDS011;44011;52.218;1.480;2024-02-04T04:36:33;5.95;;;4.05;;
58214;SDS011;44011;52.218;1.480;2024-02-04T04:38:59;7.20;;;4.20;;
58214;SDS011;44011;52.218;1.480;2024-02-04T04:41:24;4.82;;;3.33;;
58214;SDS011;44011;52.218;1.480;2024-02-04T04:43:49;4.72;;;3.70;;
58214;SDS011;44011;52.218;1.480;2024-02-04T04:46:14;5.03;;;3.72;;
58214;SDS011;44011;52.218;1.480;2024-02-04T04:48:40;5.82;;;3.72;;
58214;SDS011;44011;52.218;1.480;2024-02-04T04:51:07;4.60;;;3.72;;
58214;SDS011;44011;52.218;1.480;2024-02-04T04:53:32;4.90;;;3.72;;
58214;SDS011;44011;52.218;1.480;2024-02-04T04:55:58;5.20;;;3.70;;
58214;SDS011;44011;52.218;1.480;2024-02-04T04:58:24;3.90;;;3.45;;
58214;SDS011;44011;52.218;1.480;2024-02-04T05:00:49;6.03;;;3.60;;
58214;SDS011;44011;52.218;1.480;2024-02-04T05:03:14;4.80;;;4.00;;
58214;SDS011;44011;52.218;1.480;2024-02-04T05:05:40;5.47;;;3.60;;
58214;SDS011;44011;52.218;1.480;2024-02-04T05:08:05;4.13;;;3.05;;
58214;SDS011;44011;52.218;1.480;2024-02-04T05:10:30;5.00;;;3.40;;
58214;SDS011;44011;52.218;1.480;2024-02-04T05:12:55;4.65;;;3.53;;
58214;SDS011;44011;52.218;1.480;2024-02-04T05:15:21;3.45;;;2.88;;
58214;SDS011;44011;52.218;1.480;2024-02-04T05:17:46;4.60;;;3.53;;
58214;SDS011;44011;52.218;1.480;2024-02-04T05:20:11;3.88;;;3.00;;
58214;SDS011;44011;52.218;1.480;2024-02-04T05:22:37;4.80;;;4.03;;
58214;SDS011;44011;52.218;1.480;2024-02-04T05:25:02;4.55;;;3.47;;
58214;SDS011;44011;52.218;1.480;2024-02-04T05:27:29;4.22;;;3.13;;
58214;SDS011;44011;52.218;1.480;2024-02-04T05:29:55;4.57;;;3.33;;
58214;SDS011;44011;52.218;1.480;2024-02-04T05:32:20;6.70;;;3.28;;
58214;SDS011;44011;52.218;1.480;2024-02-04T05:34:45;4.07;;;3.22;;
58214;SDS011;44011;52.218;1.480;2024-02-04T05:37:11;3.85;;;2.88;;
58214;SDS011;44011;52.218;1.480;2024-02-04T05:39:36;3.95;;;3.15;;
58214;SDS011;44011;52.218;1.480;2024-02-04T05:42:01;4.80;;;3.42;;
58214;SDS011;44011;52.218;1.480;2024-02-04T05:44:26;4.47;;;2.92;;
58214;SDS011;44011;52.218;1.480;2024-02-04T05:46:52;4.35;;;3.05;;
58214;SDS011;44011;52.218;1.480;2024-02-04T05:49:17;3.20;;;2.90;;
58214;SDS011;44011;52.218;1.480;2024-02-04T05:51:43;3.33;;;2.70;;
58214;SDS011;44011;52.218;1.480;2024-02-04T05:54:08;5.53;;;3.80;;
58214;SDS011;44011;52.218;1.480;2024-02-04T05:56:34;7.05;;;2.85;;
58214;SDS011;44011;52.218;1.480;2024-02-04T05:58:59;5.88;;;3.30;;
58214;SDS011;44011;52.218;1.480;2024-02-04T06:01:24;3.80;;;3.30;;
58214;SDS011;44011;52.218;1.480;2024-02-04T06:03:49;3.58;;;3.22;;
58214;SDS011;44011;52.218;1.480;2024-02-04T06:06:15;4.07;;;3.35;;
58214;SDS011;44011;52.218;1.480;2024-02-04T06:08:41;5.65;;;3.05;;
58214;SDS011;44011;52.218;1.480;2024-02-04T06:11:09;3.33;;;2.58;;
58214;SDS011;44011;52.218;1.480;2024-02-04T06:13:34;4.32;;;3.25;;
58214;SDS011;44011;52.218;1.480;2024-02-04T06:15:59;4.05;;;3.22;;
58214;SDS011;44011;52.218;1.480;2024-02-04T06:18:24;3.85;;;3.22;;
58214;SDS011;44011;52.218;1.480;2024-02-04T06:20:50;3.85;;;3.00;;
58214;SDS011;44011;52.218;1.480;2024-02-04T06:23:15;3.90;;;2.63;;
58214;SDS011;44011;52.218;1.480;2024-02-04T06:25:40;4.68;;;2.97;;
58214;SDS011;44011;52.218;1.480;2024-02-04T06:28:05;4.15;;;3.25;;
58214;SDS011;44011;52.218;1.480;2024-02-04T06:30:31;3.97;;;3.15;;
58214;SDS011;44011;52.218;1.480;2024-02-04T06:32:57;4.18;;;3.15;;
58214;SDS011;44011;52.218;1.480;2024-02-04T06:35:22;5.10;;;2.67;;
58214;SDS011;44011;52.218;1.480;2024-02-04T06:37:47;4.70;;;2.90;;
58214;SDS011;44011;52.218;1.480;2024-02-04T06:40:12;3.70;;;2.53;;
58214;SDS011;44011;52.218;1.480;2024-02-04T06:42:38;4.28;;;2.63;;
58214;SDS011;44011;52.218;1.480;2024-02-04T06:45:03;4.67;;;2.57;;
58214;SDS011;44011;52.218;1.480;2024-02-04T06:47:28;3.55;;;2.28;;
58214;SDS011;44011;52.218;1.480;2024-02-04T06:49:54;3.83;;;3.13;;
58214;SDS011;44011;52.218;1.480;2024-02-04T06:52:19;3.30;;;2.25;;
58214;SDS011;44011;52.218;1.480;2024-02-04T06:54:44;3.55;;;3.05;;
58214;SDS011;44011;52.218;1.480;2024-02-04T06:57:10;3.03;;;2.35;;
58214;SDS011;44011;52.218;1.480;2024-02-04T06:59:35;3.95;;;2.50;;
58214;SDS011;44011;52.218;1.480;2024-02-04T07:02:00;3.63;;;2.70;;
58214;SDS011;44011;52.218;1.480;2024-02-04T07:04:26;3.00;;;2.13;;
58214;SDS011;44011;52.218;1.480;2024-02-04T07:06:51;3.90;;;2.80;;
58214;SDS011;44011;52.218;1.480;2024-02-04T07:09:16;3.35;;;2.53;;
58214;SDS011;44011;52.218;1.480;2024-02-04T07:11:42;3.88;;;2.15;;
58214;SDS011;44011;52.218;1.480;2024-02-04T07:14:07;3.03;;;1.80;;
58214;SDS011;44011;52.218;1.480;2024-02-04T07:16:33;2.47;;;2.22;;
58214;SDS011;44011;52.218;1.480;2024-02-04T07:18:58;2.03;;;1.80;;
58214;SDS011;44011;52.218;1.480;2024-02-04T07:21:24;4.47;;;2.20;;
58214;SDS011;44011;52.218;1.480;2024-02-04T07:23:49;2.17;;;1.77;;
58214;SDS011;44011;52.218;1.480;2024-02-04T07:26:14;2.97;;;2.00;;
58214;SDS011;44011;52.218;1.480;2024-02-04T07:28:39;5.43;;;2.30;;
58214;SDS011;44011;52.218;1.480;2024-02-04T07:31:05;2.60;;;1.70;;
58214;SDS011;44011;52.218;1.480;2024-02-04T07:33:30;4.88;;;1.75;;
58214;SDS011;44011;52.218;1.480;2024-02-04T07:35:55;3.83;;;1.92;;
58214;SDS011;44011;52.218;1.480;2024-02-04T07:38:20;3.28;;;1.95;;
58214;SDS011;44011;52.218;1.480;2024-02-04T07:40:46;2.20;;;1.80;;
58214;SDS011;44011;52.218;1.480;2024-02-04T07:43:11;1.60;;;1.35;;
58214;SDS011;44011;52.218;1.480;2024-02-04T07:45:36;1.95;;;1.55;;
58214;SDS011;44011;52.218;1.480;2024-02-04T07:48:02;2.28;;;1.63;;
58214;SDS011;44011;52.218;1.480;2024-02-04T07:50:28;2.45;;;1.48;;
58214;SDS011;44011;52.218;1.480;2024-02-04T07:52:53;1.10;;;1.00;;
58214;SDS011;44011;52.218;1.480;2024-02-04T07:55:18;3.47;;;1.55;;
58214;SDS011;44011;52.218;1.480;2024-02-04T07:57:44;2.15;;;1.33;;
58214;SDS011;44011;52.218;1.480;2024-02-04T08:00:10;1.88;;;1.27;;
58214;SDS011;44011;52.218;1.480;2024-02-04T08:02:35;3.35;;;1.35;;
58214;SDS011;44011;52.218;1.480;2024-02-04T08:05:00;3.17;;;1.70;;
58214;SDS011;44011;52.218;1.480;2024-02-04T08:07:26;1.15;;;0.90;;
58214;SDS011;44011;52.218;1.480;2024-02-04T08:09:51;2.72;;;1.40;;
58214;SDS011;44011;52.218;1.480;2024-02-04T08:12:17;2.13;;;1.20;;
58214;SDS011;44011;52.218;1.480;2024-02-04T08:14:42;2.65;;;1.40;;
58214;SDS011;44011;52.218;1.480;2024-02-04T08:17:08;1.70;;;1.33;;
58214;SDS011;44011;52.218;1.480;2024-02-04T08:19:33;1.23;;;1.13;;
58214;SDS011;44011;52.218;1.480;2024-02-04T08:21:58;1.30;;;1.05;;
58214;SDS011;44011;52.218;1.480;2024-02-04T08:24:24;3.92;;;1.40;;
58214;SDS011;44011;52.218;1.480;2024-02-04T08:26:49;1.25;;;0.80;;
58214;SDS011;44011;52.218;1.480;2024-02-04T08:29:14;1.85;;;1.52;;
58214;SDS011;44011;52.218;1.480;2024-02-04T08:31:39;1.77;;;0.90;;
58214;SDS011;44011;52.218;1.480;2024-02-04T08:34:04;2.08;;;1.23;;
58214;SDS011;44011;52.218;1.480;2024-02-04T08:36:32;1.80;;;1.00;;
58214;SDS011;44011;52.218;1.480;2024-02-04T08:38:57;2.67;;;1.15;;
58214;SDS011;44011;52.218;1.480;2024-02-04T08:41:22;1.80;;;1.10;;
58214;SDS011;44011;52.218;1.480;2024-02-04T08:43:48;1.15;;;0.93;;
58214;SDS011;44011;52.218;1.480;2024-02-04T08:46:13;1.25;;;0.80;;
58214;SDS011;44011;52.218;1.480;2024-02-04T08:48:38;1.10;;;0.95;;
58214;SDS011;44011;52.218;1.480;2024-02-04T08:51:03;1.77;;;1.65;;
58214;SDS011;44011;52.218;1.480;2024-02-04T08:53:29;2.20;;;1.20;;
58214;SDS011;44011;52.218;1.480;2024-02-04T08:55:54;2.38;;;0.90;;
58214;SDS011;44011;52.218;1.480;2024-02-04T08:58:19;0.82;;;0.82;;
58214;SDS011;44011;52.218;1.480;2024-02-04T09:00:45;2.13;;;1.15;;
58214;SDS011;44011;52.218;1.480;2024-02-04T09:03:10;1.27;;;0.75;;
58214;SDS011;44011;52.218;1.480;2024-02-04T09:05:35;1.80;;;0.85;;
58214;SDS011;44011;52.218;1.480;2024-02-04T09:08:00;2.38;;;0.82;;
58214;SDS011;44011;52.218;1.480;2024-02-04T09:10:26;1.13;;;0.90;;
58214;SDS011;44011;52.218;1.480;2024-02-04T09:12:52;1.10;;;0.75;;
58214;SDS011;44011;52.218;1.480;2024-02-04T09:15:17;1.42;;;0.60;;
58214;SDS011;44011;52.218;1.480;2024-02-04T09:17:42;1.80;;;0.82;;
58214;SDS011;44011;52.218;1.480;2024-02-04T09:20:08;0.80;;;0.63;;
58214;SDS011;44011;52.218;1.480;2024-02-04T09:22:33;0.70;;;0.70;;
58214;SDS011;44011;52.218;1.480;2024-02-04T09:24:59;0.70;;;0.70;;
58214;SDS011;44011;52.218;1.480;2024-02-04T09:27:24;1.98;;;0.85;;
58214;SDS011;44011;52.218;1.480;2024-02-04T09:29:50;0.70;;;0.70;;
58214;SDS011;44011;52.218;1.480;2024-02-04T09:32:15;0.70;;;0.70;;
58214;SDS011;44011;52.218;1.480;2024-02-04T09:34:40;1.60;;;0.65;;
58214;SDS011;44011;52.218;1.480;2024-02-04T09:37:06;0.75;;;0.60;;
58214;SDS011;44011;52.218;1.480;2024-02-04T09:39:32;0.68;;;0.68;;
58214;SDS011;44011;52.218;1.480;2024-02-04T09:41:57;0.60;;;0.60;;
58214;SDS011;44011;52.218;1.480;2024-02-04T09:44:22;0.50;;;0.50;;
58214;SDS011;44011;52.218;1.480;2024-02-04T09:46:48;0.50;;;0.50;;
58214;SDS011;44011;52.218;1.480;2024-02-04T09:49:13;0.68;;;0.57;;
58214;SDS011;44011;52.218;1.480;2024-02-04T09:51:39;0.57;;;0.50;;
58214;SDS011;44011;52.218;1.480;2024-02-04T09:54:04;0.50;;;0.50;;
58214;SDS011;44011;52.218;1.480;2024-02-04T09:56:33;0.43;;;0.43;;
58214;SDS011;44011;52.218;1.480;2024-02-04T09:58:59;1.02;;;0.50;;
58214;SDS011;44011;52.218;1.480;2024-02-04T10:01:25;1.13;;;0.57;;
58214;SDS011;44011;52.218;1.480;2024-02-04T10:03:51;0.98;;;0.75;;
58214;SDS011;44011;52.218;1.480;2024-02-04T10:06:16;0.60;;;0.50;;
58214;SDS011;44011;52.218;1.480;2024-02-04T10:08:42;0.88;;;0.60;;
58214;SDS011;44011;52.218;1.480;2024-02-04T10:11:07;1.35;;;0.60;;
58214;SDS011;44011;52.218;1.480;2024-02-04T10:13:46;0.77;;;0.77;;
58214;SDS011;44011;52.218;1.480;2024-02-04T10:16:12;0.77;;;0.73;;
58214;SDS011;44011;52.218;1.480;2024-02-04T10:18:37;2.00;;;1.80;;
58214;SDS011;44011;52.218;1.480;2024-02-04T10:21:02;1.65;;;1.10;;
58214;SDS011;44011;52.218;1.480;2024-02-04T10:23:28;1.27;;;1.10;;
58214;SDS011;44011;52.218;1.480;2024-02-04T10:25:59;0.88;;;0.80;;
58214;SDS011;44011;52.218;1.480;2024-02-04T10:28:25;0.88;;;0.88;;
58214;SDS011;44011;52.218;1.480;2024-02-04T10:30:50;0.93;;;0.82;;
58214;SDS011;44011;52.218;1.480;2024-02-04T10:33:15;1.00;;;0.68;;
58214;SDS011;44011;52.218;1.480;2024-02-04T10:35:42;0.82;;;0.82;;
58214;SDS011;44011;52.218;1.480;2024-02-04T10:38:07;1.75;;;0.90;;
58214;SDS011;44011;52.218;1.480;2024-02-04T10:40:32;1.30;;;0.65;;
58214;SDS011;44011;52.218;1.480;2024-02-04T10:42:59;0.80;;;0.80;;
58214;SDS011;44011;52.218;1.480;2024-02-04T10:45:25;1.30;;;0.60;;
58214;SDS011;44011;52.218;1.480;2024-02-04T10:47:55;1.33;;;0.63;;
58214;SDS011;44011;52.218;1.480;2024-02-04T10:50:21;0.88;;;0.70;;
58214;SDS011;44011;52.218;1.480;2024-02-04T10:52:48;1.00;;;0.60;;
58214;SDS011;44011;52.218;1.480;2024-02-04T10:55:14;0.80;;;0.70;;
58214;SDS011;44011;52.218;1.480;2024-02-04T10:57:40;1.00;;;0.73;;
58214;SDS011;44011;52.218;1.480;2024-02-04T11:00:06;0.82;;;0.55;;
58214;SDS011;44011;52.218;1.480;2024-02-04T11:02:34;1.00;;;0.80;;
58214;SDS011;44011;52.218;1.480;2024-02-04T11:04:59;0.77;;;0.60;;
58214;SDS011;44011;52.218;1.480;2024-02-04T11:07:26;1.08;;;0.65;;
58214;SDS011;44011;52.218;1.480;2024-02-04T11:09:51;0.63;;;0.52;;
58214;SDS011;44011;52.218;1.480;2024-02-04T11:12:18;0.65;;;0.57;;
58214;SDS011;44011;52.218;1.480;2024-02-04T11:14:44;0.70;;;0.70;;
58214;SDS011;44011;52.218;1.480;2024-02-04T11:17:24;0.50;;;0.50;;
58214;SDS011;44011;52.218;1.480;2024-02-04T11:20:11;1.48;;;0.50;;
58214;SDS011;44011;52.218;1.480;2024-02-04T11:27:41;0.60;;;0.60;;
58214;SDS011;44011;52.218;1.480;2024-02-04T11:30:06;0.70;;;0.60;;
58214;SDS011;44011;52.218;1.480;2024-02-04T11:32:34;0.88;;;0.65;;
58214;SDS011;44011;52.218;1.480;2024-02-04T11:34:59;0.65;;;0.60;;
58214;SDS011;44011;52.218;1.480;2024-02-04T11:37:27;1.02;;;0.57;;
58214;SDS011;44011;52.218;1.480;2024-02-04T11:39:53;0.88;;;0.50;;
58214;SDS011;44011;52.218;1.480;2024-02-04T11:42:19;1.20;;;0.50;;
58214;SDS011;44011;52.218;1.480;2024-02-04T11:44:47;1.63;;;0.85;;
58214;SDS011;44011;52.218;1.480;2024-02-04T11:47:22;3.47;;;0.90;;
58214;SDS011;44011;52.218;1.480;2024-02-04T11:49:53;0.63;;;0.63;;
58214;SDS011;44011;52.218;1.480;2024-02-04T11:52:18;0.82;;;0.70;;
58214;SDS011;44011;52.218;1.480;2024-02-04T11:54:43;0.90;;;0.90;;
58214;SDS011;44011;52.218;1.480;2024-02-04T11:57:09;1.42;;;0.57;;
58214;SDS011;44011;52.218;1.480;2024-02-04T11:59:34;0.90;;;0.80;;
58214;SDS011;44011;52.218;1.480;2024-02-04T12:02:05;3.13;;;1.45;;
58214;SDS011;44011;52.218;1.480;2024-02-04T12:04:31;2.80;;;0.80;;
58214;SDS011;44011;52.218;1.480;2024-02-04T12:06:57;1.38;;;0.77;;
58214;SDS011;44011;52.218;1.480;2024-02-04T12:09:22;1.17;;;1.08;;
58214;SDS011;44011;52.218;1.480;2024-02-04T12:11:47;2.13;;;0.90;;
58214;SDS011;44011;52.218;1.480;2024-02-04T12:14:13;0.70;;;0.70;;
58214;SDS011;44011;52.218;1.480;2024-02-04T12:16:38;0.77;;;0.77;;
58214;SDS011;44011;52.218;1.480;2024-02-04T12:19:05;1.17;;;1.05;;
58214;SDS011;44011;52.218;1.480;2024-02-04T12:21:31;0.68;;;0.68;;
58214;SDS011;44011;52.218;1.480;2024-02-04T12:23:56;1.05;;;1.05;;
58214;SDS011;44011;52.218;1.480;2024-02-04T12:26:22;0.75;;;0.75;;
58214;SDS011;44011;52.218;1.480;2024-02-04T12:28:48;1.15;;;0.80;;
58214;SDS011;44011;52.218;1.480;2024-02-04T12:31:20;1.60;;;0.93;;
58214;SDS011;44011;52.218;1.480;2024-02-04T12:33:52;1.27;;;0.90;;
58214;SDS011;44011;52.218;1.480;2024-02-04T12:36:18;0.73;;;0.73;;
58214;SDS011;44011;52.218;1.480;2024-02-04T12:38:49;1.10;;;0.80;;
58214;SDS011;44011;52.218;1.480;2024-02-04T12:41:15;0.77;;;0.77;;
58214;SDS011;44011;52.218;1.480;2024-02-04T12:43:40;3.22;;;0.80;;
58214;SDS011;44011;52.218;1.480;2024-02-04T12:46:05;1.92;;;0.93;;
58214;SDS011;44011;52.218;1.480;2024-02-04T12:48:32;1.17;;;0.93;;
58214;SDS011;44011;52.218;1.480;2024-02-04T12:50:58;1.45;;;1.10;;
58214;SDS011;44011;52.218;1.480;2024-02-04T12:53:23;2.92;;;1.08;;
58214;SDS011;44011;52.218;1.480;2024-02-04T12:55:48;2.47;;;1.05;;
58214;SDS011;44011;52.218;1.480;2024-02-04T12:58:22;0.90;;;0.90;;
58214;SDS011;44011;52.218;1.480;2024-02-04T13:00:49;0.95;;;0.82;;
58214;SDS011;44011;52.218;1.480;2024-02-04T13:03:15;1.20;;;1.10;;
58214;SDS011;44011;52.218;1.480;2024-02-04T13:05:40;1.75;;;1.08;;
58214;SDS011;44011;52.218;1.480;2024-02-04T13:08:05;2.97;;;1.30;;
58214;SDS011;44011;52.218;1.480;2024-02-04T13:10:33;2.42;;;1.15;;
58214;SDS011;44011;52.218;1.480;2024-02-04T13:13:02;2.38;;;1.30;;
58214;SDS011;44011;52.218;1.480;2024-02-04T13:15:28;1.75;;;1.20;;
58214;SDS011;44011;52.218;1.480;2024-02-04T13:17:54;1.20;;;1.10;;
58214;SDS011;44011;52.218;1.480;2024-02-04T13:20:19;1.05;;;0.95;;
58214;SDS011;44011;52.218;1.480;2024-02-04T13:22:44;1.55;;;1.20;;
58214;SDS011;44011;52.218;1.480;2024-02-04T13:25:09;1.93;;;1.40;;
58214;SDS011;44011;52.218;1.480;2024-02-04T13:27:35;2.80;;;1.25;;
58214;SDS011;44011;52.218;1.480;2024-02-04T13:30:00;1.25;;;1.15;;
58214;SDS011;44011;52.218;1.480;2024-02-04T13:32:25;2.73;;;2.43;;
58214;SDS011;44011;52.218;1.480;2024-02-04T13:34:50;4.17;;;1.30;;
58214;SDS011;44011;52.218;1.480;2024-02-04T13:37:16;2.10;;;1.38;;
58214;SDS011;44011;52.218;1.480;2024-02-04T13:39:42;2.70;;;1.23;;
58214;SDS011;44011;52.218;1.480;2024-02-04T13:42:07;3.10;;;1.75;;
58214;SDS011;44011;52.218;1.480;2024-02-04T13:44:32;4.47;;;1.73;;
58214;SDS011;44011;52.218;1.480;2024-02-04T13:46:58;2.13;;;1.30;;
58214;SDS011;44011;52.218;1.480;2024-02-04T13:49:23;2.45;;;1.58;;
58214;SDS011;44011;52.218;1.480;2024-02-04T13:51:48;3.40;;;2.03;;
58214;SDS011;44011;52.218;1.480;2024-02-04T13:54:13;1.58;;;1.48;;
58214;SDS011;44011;52.218;1.480;2024-02-04T13:56:42;2.55;;;1.70;;
58214;SDS011;44011;52.218;1.480;2024-02-04T13:59:07;4.72;;;2.35;;
58214;SDS011;44011;52.218;1.480;2024-02-04T14:01:33;1.80;;;1.52;;
58214;SDS011;44011;52.218;1.480;2024-02-04T14:03:58;8.05;;;2.17;;
58214;SDS011;44011;52.218;1.480;2024-02-04T14:06:23;3.72;;;1.95;;
58214;SDS011;44011;52.218;1.480;2024-02-04T14:08:48;2.80;;;1.20;;
58214;SDS011;44011;52.218;1.480;2024-02-04T14:11:14;2.47;;;1.20;;
58214;SDS011;44011;52.218;1.480;2024-02-04T14:13:39;3.58;;;1.40;;
58214;SDS011;44011;52.218;1.480;2024-02-04T14:16:04;5.00;;;1.40;;
58214;SDS011;44011;52.218;1.480;2024-02-04T14:18:31;3.50;;;1.45;;
58214;SDS011;44011;52.218;1.480;2024-02-04T14:20:56;1.60;;;1.03;;
58214;SDS011;44011;52.218;1.480;2024-02-04T14:23:21;1.17;;;1.00;;
58214;SDS011;44011;52.218;1.480;2024-02-04T14:25:46;4.75;;;1.42;;
58214;SDS011;44011;52.218;1.480;2024-02-04T14:28:12;1.70;;;1.10;;
58214;SDS011;44011;52.218;1.480;2024-02-04T14:30:37;1.98;;;1.17;;
58214;SDS011;44011;52.218;1.480;2024-02-04T14:33:02;3.08;;;1.30;;
58214;SDS011;44011;52.218;1.480;2024-02-04T14:35:28;1.08;;;1.00;;
58214;SDS011;44011;52.218;1.480;2024-02-04T14:37:53;1.80;;;1.10;;
58214;SDS011;44011;52.218;1.480;2024-02-04T14:40:18;2.28;;;1.45;;
58214;SDS011;44011;52.218;1.480;2024-02-04T14:42:43;2.27;;;0.97;;
58214;SDS011;44011;52.218;1.480;2024-02-04T14:45:09;0.95;;;0.88;;
58214;SDS011;44011;52.218;1.480;2024-02-04T14:47:35;0.73;;;0.73;;
58214;SDS011;44011;52.218;1.480;2024-02-04T14:50:01;2.25;;;1.02;;
58214;SDS011;44011;52.218;1.480;2024-02-04T14:52:26;1.30;;;0.82;;